sensor_id;sensor_type;location;lat;lon;timestamp;P1;durP1;ratioP1;P2;durP2;ratioP2
3769;SDS011;1900;48.890;9.190;2022-08-06T00:00:52;3.00;;;1.90;;
3769;SDS011;1900;48.890;9.190;2022-08-06T00:03:18;2.90;;;1.80;;
3769;SDS011;1900;48.890;9.190;2022-08-06T00:05:43;3.03;;;2.23;;
3769;SDS011;1900;48.890;9.190;2022-08-06T00:08:09;2.20;;;1.50;;
3769;SDS011;1900;48.890;9.190;2022-08-06T00:10:35;2.17;;;1.70;;
3769;SDS011;1900;48.890;9.190;2022-08-06T00:13:01;2.73;;;1.87;;
3769;SDS011;1900;48.890;9.190;2022-08-06T00:15:27;4.80;;;2.17;;
3769;SDS011;1900;48.890;9.190;2022-08-06T00:17:53;2.57;;;1.80;;
3769;SDS011;1900;48.890;9.190;2022-08-06T00:20:19;5.57;;;2.00;;
3769;SDS011;1900;48.890;9.190;2022-08-06T00:22:45;3.90;;;2.10;;
3769;SDS011;1900;48.890;9.190;2022-08-06T00:25:10;3.20;;;2.20;;
3769;SDS011;1900;48.890;9.190;2022-08-06T00:27:36;3.83;;;1.60;;
3769;SDS011;1900;48.890;9.190;2022-08-06T00:30:06;2.63;;;1.63;;
3769;SDS011;1900;48.890;9.190;2022-08-06T00:32:33;3.30;;;1.83;;
3769;SDS011;1900;48.890;9.190;2022-08-06T00:34:59;1.73;;;1.63;;
3769;SDS011;1900;48.890;9.190;2022-08-06T00:37:25;2.20;;;1.80;;
3769;SDS011;1900;48.890;9.190;2022-08-06T00:39:54;3.10;;;2.07;;
3769;SDS011;1900;48.890;9.190;2022-08-06T00:42:20;4.80;;;1.63;;
3769;SDS011;1900;48.890;9.190;2022-08-06T00:44:46;1.93;;;1.73;;
3769;SDS011;1900;48.890;9.190;2022-08-06T00:47:12;4.80;;;2.60;;
3769;SDS011;1900;48.890;9.190;2022-08-06T00:49:38;2.33;;;1.70;;
3769;SDS011;1900;48.890;9.190;2022-08-06T00:52:03;4.43;;;1.90;;
3769;SDS011;1900;48.890;9.190;2022-08-06T00:54:29;2.07;;;1.70;;
3769;SDS011;1900;48.890;9.190;2022-08-06T00:56:55;2.37;;;1.70;;
3769;SDS011;1900;48.890;9.190;2022-08-06T00:59:21;2.83;;;1.87;;
3769;SDS011;1900;48.890;9.190;2022-08-06T01:01:47;3.17;;;1.60;;
3769;SDS011;1900;48.890;9.190;2022-08-06T01:04:12;2.93;;;1.97;;
3769;SDS011;1900;48.890;9.190;2022-08-06T01:06:38;4.13;;;1.80;;
3769;SDS011;1900;48.890;9.190;2022-08-06T01:09:04;1.77;;;1.57;;
3769;SDS011;1900;48.890;9.190;2022-08-06T01:11:30;2.17;;;1.90;;
3769;SDS011;1900;48.890;9.190;2022-08-06T01:13:55;4.13;;;1.73;;
3769;SDS011;1900;48.890;9.190;2022-08-06T01:19:01;2.70;;;1.83;;
3769;SDS011;1900;48.890;9.190;2022-08-06T01:24:12;2.83;;;1.40;;
3769;SDS011;1900;48.890;9.190;2022-08-06T01:26:46;3.10;;;1.97;;
3769;SDS011;1900;48.890;9.190;2022-08-06T01:29:26;1.93;;;1.53;;
3769;SDS011;1900;48.890;9.190;2022-08-06T01:31:56;3.60;;;1.80;;
3769;SDS011;1900;48.890;9.190;2022-08-06T01:34:40;2.07;;;1.37;;
3769;SDS011;1900;48.890;9.190;2022-08-06T01:37:20;3.93;;;2.13;;
3769;SDS011;1900;48.890;9.190;2022-08-06T01:39:52;1.80;;;1.33;;
3769;SDS011;1900;48.890;9.190;2022-08-06T01:42:21;2.73;;;1.60;;
3769;SDS011;1900;48.890;9.190;2022-08-06T01:44:50;1.63;;;1.43;;
3769;SDS011;1900;48.890;9.190;2022-08-06T01:47:19;1.90;;;1.53;;
3769;SDS011;1900;48.890;9.190;2022-08-06T01:49:49;3.20;;;1.50;;
3769;SDS011;1900;48.890;9.190;2022-08-06T01:52:17;1.70;;;1.60;;
3769;SDS011;1900;48.890;9.190;2022-08-06T01:54:45;2.70;;;1.40;;
3769;SDS011;1900;48.890;9.190;2022-08-06T01:57:13;1.97;;;1.77;;
3769;SDS011;1900;48.890;9.190;2022-08-06T01:59:44;2.60;;;1.70;;
3769;SDS011;1900;48.890;9.190;2022-08-06T02:02:14;1.50;;;1.40;;
3769;SDS011;1900;48.890;9.190;2022-08-06T02:04:43;2.73;;;1.60;;
3769;SDS011;1900;48.890;9.190;2022-08-06T02:07:11;2.93;;;1.50;;
3769;SDS011;1900;48.890;9.190;2022-08-06T02:09:38;3.77;;;1.90;;
3769;SDS011;1900;48.890;9.190;2022-08-06T02:12:08;1.67;;;1.57;;
3769;SDS011;1900;48.890;9.190;2022-08-06T02:17:18;1.80;;;1.40;;
3769;SDS011;1900;48.890;9.190;2022-08-06T02:19:47;3.40;;;1.47;;
3769;SDS011;1900;48.890;9.190;2022-08-06T02:22:15;4.10;;;2.07;;
3769;SDS011;1900;48.890;9.190;2022-08-06T02:24:45;3.80;;;1.90;;
3769;SDS011;1900;48.890;9.190;2022-08-06T02:27:12;2.27;;;1.90;;
3769;SDS011;1900;48.890;9.190;2022-08-06T02:29:40;3.67;;;1.80;;
3769;SDS011;1900;48.890;9.190;2022-08-06T02:32:07;3.67;;;1.73;;
3769;SDS011;1900;48.890;9.190;2022-08-06T02:34:34;3.13;;;1.77;;
3769;SDS011;1900;48.890;9.190;2022-08-06T02:39:49;3.10;;;2.23;;
3769;SDS011;1900;48.890;9.190;2022-08-06T02:42:26;1.83;;;1.60;;
3769;SDS011;1900;48.890;9.190;2022-08-06T02:45:13;4.83;;;2.07;;
3769;SDS011;1900;48.890;9.190;2022-08-06T02:47:49;4.87;;;2.00;;
3769;SDS011;1900;48.890;9.190;2022-08-06T02:50:20;3.90;;;1.77;;
3769;SDS011;1900;48.890;9.190;2022-08-06T02:52:53;5.20;;;1.83;;
3769;SDS011;1900;48.890;9.190;2022-08-06T02:55:25;2.33;;;1.57;;
3769;SDS011;1900;48.890;9.190;2022-08-06T02:57:57;3.53;;;1.63;;
3769;SDS011;1900;48.890;9.190;2022-08-06T03:00:29;2.90;;;1.80;;
3769;SDS011;1900;48.890;9.190;2022-08-06T03:02:57;5.07;;;1.73;;
3769;SDS011;1900;48.890;9.190;2022-08-06T03:05:25;2.77;;;1.80;;
3769;SDS011;1900;48.890;9.190;2022-08-06T03:07:54;5.37;;;1.60;;
3769;SDS011;1900;48.890;9.190;2022-08-06T03:10:23;3.47;;;1.90;;
3769;SDS011;1900;48.890;9.190;2022-08-06T03:12:51;4.00;;;2.00;;
3769;SDS011;1900;48.890;9.190;2022-08-06T03:15:19;1.80;;;1.70;;
3769;SDS011;1900;48.890;9.190;2022-08-06T03:17:47;2.00;;;1.40;;
3769;SDS011;1900;48.890;9.190;2022-08-06T03:20:18;2.50;;;1.80;;
3769;SDS011;1900;48.890;9.190;2022-08-06T03:22:46;5.03;;;2.00;;
3769;SDS011;1900;48.890;9.190;2022-08-06T03:25:16;1.63;;;1.50;;
3769;SDS011;1900;48.890;9.190;2022-08-06T03:27:46;1.90;;;1.53;;
3769;SDS011;1900;48.890;9.190;2022-08-06T03:30:12;6.40;;;2.03;;
3769;SDS011;1900;48.890;9.190;2022-08-06T03:32:43;2.63;;;1.80;;
3769;SDS011;1900;48.890;9.190;2022-08-06T03:35:10;4.80;;;2.00;;
3769;SDS011;1900;48.890;9.190;2022-08-06T03:37:36;3.77;;;1.83;;
3769;SDS011;1900;48.890;9.190;2022-08-06T03:40:04;4.23;;;1.97;;
3769;SDS011;1900;48.890;9.190;2022-08-06T03:42:30;2.70;;;1.90;;
3769;SDS011;1900;48.890;9.190;2022-08-06T03:44:56;7.57;;;2.20;;
3769;SDS011;1900;48.890;9.190;2022-08-06T03:47:23;3.90;;;2.10;;
3769;SDS011;1900;48.890;9.190;2022-08-06T03:52:50;4.80;;;1.83;;
3769;SDS011;1900;48.890;9.190;2022-08-06T03:55:22;5.77;;;1.90;;
3769;SDS011;1900;48.890;9.190;2022-08-06T03:57:50;2.40;;;1.90;;
3769;SDS011;1900;48.890;9.190;2022-08-06T04:00:21;3.40;;;2.03;;
3769;SDS011;1900;48.890;9.190;2022-08-06T04:02:50;3.53;;;1.43;;
3769;SDS011;1900;48.890;9.190;2022-08-06T04:05:18;2.20;;;1.67;;
3769;SDS011;1900;48.890;9.190;2022-08-06T04:07:46;3.27;;;1.97;;
3769;SDS011;1900;48.890;9.190;2022-08-06T04:10:13;6.13;;;1.90;;
3769;SDS011;1900;48.890;9.190;2022-08-06T04:12:42;2.83;;;1.90;;
3769;SDS011;1900;48.890;9.190;2022-08-06T04:15:09;3.70;;;2.07;;
3769;SDS011;1900;48.890;9.190;2022-08-06T04:17:37;3.90;;;1.70;;
3769;SDS011;1900;48.890;9.190;2022-08-06T04:20:05;4.50;;;1.57;;
3769;SDS011;1900;48.890;9.190;2022-08-06T04:22:32;2.90;;;1.30;;
3769;SDS011;1900;48.890;9.190;2022-08-06T04:24:58;2.50;;;1.90;;
3769;SDS011;1900;48.890;9.190;2022-08-06T04:27:25;3.73;;;1.83;;
3769;SDS011;1900;48.890;9.190;2022-08-06T04:29:52;3.37;;;1.80;;
3769;SDS011;1900;48.890;9.190;2022-08-06T04:32:22;2.40;;;1.63;;
3769;SDS011;1900;48.890;9.190;2022-08-06T04:34:49;4.70;;;1.80;;
3769;SDS011;1900;48.890;9.190;2022-08-06T04:37:17;5.83;;;1.90;;
3769;SDS011;1900;48.890;9.190;2022-08-06T04:39:43;1.43;;;1.33;;
3769;SDS011;1900;48.890;9.190;2022-08-06T04:42:10;2.20;;;1.63;;
3769;SDS011;1900;48.890;9.190;2022-08-06T04:44:36;2.10;;;1.90;;
3769;SDS011;1900;48.890;9.190;2022-08-06T04:47:03;5.00;;;1.90;;
3769;SDS011;1900;48.890;9.190;2022-08-06T04:49:29;3.70;;;1.70;;
3769;SDS011;1900;48.890;9.190;2022-08-06T04:51:55;2.87;;;1.63;;
3769;SDS011;1900;48.890;9.190;2022-08-06T04:54:21;2.13;;;1.77;;
3769;SDS011;1900;48.890;9.190;2022-08-06T04:56:47;4.17;;;1.50;;
3769;SDS011;1900;48.890;9.190;2022-08-06T04:59:13;4.20;;;1.80;;
3769;SDS011;1900;48.890;9.190;2022-08-06T05:01:39;5.93;;;1.90;;
3769;SDS011;1900;48.890;9.190;2022-08-06T05:04:05;3.77;;;1.90;;
3769;SDS011;1900;48.890;9.190;2022-08-06T05:06:33;2.53;;;1.73;;
3769;SDS011;1900;48.890;9.190;2022-08-06T05:09:10;1.73;;;1.63;;
3769;SDS011;1900;48.890;9.190;2022-08-06T05:11:41;2.37;;;2.17;;
3769;SDS011;1900;48.890;9.190;2022-08-06T05:14:13;4.40;;;1.97;;
3769;SDS011;1900;48.890;9.190;2022-08-06T05:16:43;3.90;;;2.00;;
3769;SDS011;1900;48.890;9.190;2022-08-06T05:19:13;3.53;;;2.17;;
3769;SDS011;1900;48.890;9.190;2022-08-06T05:21:46;4.40;;;2.30;;
3769;SDS011;1900;48.890;9.190;2022-08-06T05:24:14;2.10;;;2.00;;
3769;SDS011;1900;48.890;9.190;2022-08-06T05:26:40;5.63;;;2.00;;
3769;SDS011;1900;48.890;9.190;2022-08-06T05:29:06;4.40;;;2.07;;
3769;SDS011;1900;48.890;9.190;2022-08-06T05:31:34;2.07;;;1.87;;
3769;SDS011;1900;48.890;9.190;2022-08-06T05:34:01;4.87;;;2.23;;
3769;SDS011;1900;48.890;9.190;2022-08-06T05:36:28;3.93;;;1.97;;
3769;SDS011;1900;48.890;9.190;2022-08-06T05:38:53;3.93;;;1.80;;
3769;SDS011;1900;48.890;9.190;2022-08-06T05:41:19;2.73;;;2.00;;
3769;SDS011;1900;48.890;9.190;2022-08-06T05:43:45;3.23;;;1.80;;
3769;SDS011;1900;48.890;9.190;2022-08-06T05:46:11;4.87;;;2.30;;
3769;SDS011;1900;48.890;9.190;2022-08-06T05:48:41;2.83;;;1.90;;
3769;SDS011;1900;48.890;9.190;2022-08-06T05:51:13;5.63;;;2.20;;
3769;SDS011;1900;48.890;9.190;2022-08-06T05:53:51;5.50;;;2.00;;
3769;SDS011;1900;48.890;9.190;2022-08-06T05:56:23;3.50;;;2.10;;
3769;SDS011;1900;48.890;9.190;2022-08-06T05:58:55;3.03;;;2.10;;
3769;SDS011;1900;48.890;9.190;2022-08-06T06:01:26;4.50;;;2.10;;
3769;SDS011;1900;48.890;9.190;2022-08-06T06:03:53;5.00;;;2.23;;
3769;SDS011;1900;48.890;9.190;2022-08-06T06:06:20;3.00;;;1.90;;
3769;SDS011;1900;48.890;9.190;2022-08-06T06:08:47;4.47;;;2.30;;
3769;SDS011;1900;48.890;9.190;2022-08-06T06:11:13;4.50;;;1.77;;
3769;SDS011;1900;48.890;9.190;2022-08-06T06:13:41;6.90;;;2.10;;
3769;SDS011;1900;48.890;9.190;2022-08-06T06:18:38;3.03;;;2.27;;
3769;SDS011;1900;48.890;9.190;2022-08-06T06:21:25;3.90;;;2.10;;
3769;SDS011;1900;48.890;9.190;2022-08-06T06:24:00;2.50;;;2.30;;
3769;SDS011;1900;48.890;9.190;2022-08-06T06:29:10;4.20;;;2.33;;
3769;SDS011;1900;48.890;9.190;2022-08-06T06:37:46;3.40;;;1.87;;
3769;SDS011;1900;48.890;9.190;2022-08-06T06:43:46;3.83;;;1.80;;
3769;SDS011;1900;48.890;9.190;2022-08-06T06:46:26;2.20;;;1.70;;
3769;SDS011;1900;48.890;9.190;2022-08-06T06:48:55;4.17;;;2.20;;
3769;SDS011;1900;48.890;9.190;2022-08-06T06:51:30;3.60;;;2.03;;
3769;SDS011;1900;48.890;9.190;2022-08-06T06:53:58;2.80;;;2.10;;
3769;SDS011;1900;48.890;9.190;2022-08-06T06:56:26;2.93;;;1.87;;
3769;SDS011;1900;48.890;9.190;2022-08-06T07:01:31;3.30;;;2.13;;
3769;SDS011;1900;48.890;9.190;2022-08-06T07:03:58;3.03;;;2.60;;
3769;SDS011;1900;48.890;9.190;2022-08-06T07:06:25;6.23;;;2.07;;
3769;SDS011;1900;48.890;9.190;2022-08-06T07:08:52;2.87;;;1.83;;
3769;SDS011;1900;48.890;9.190;2022-08-06T07:11:21;2.53;;;1.83;;
3769;SDS011;1900;48.890;9.190;2022-08-06T07:13:48;3.23;;;2.07;;
3769;SDS011;1900;48.890;9.190;2022-08-06T07:16:16;3.67;;;2.03;;
3769;SDS011;1900;48.890;9.190;2022-08-06T07:18:46;4.40;;;1.90;;
3769;SDS011;1900;48.890;9.190;2022-08-06T07:21:13;2.80;;;2.20;;
3769;SDS011;1900;48.890;9.190;2022-08-06T07:23:41;3.23;;;1.90;;
3769;SDS011;1900;48.890;9.190;2022-08-06T07:26:09;3.23;;;1.90;;
3769;SDS011;1900;48.890;9.190;2022-08-06T07:28:37;2.93;;;2.00;;
3769;SDS011;1900;48.890;9.190;2022-08-06T07:31:04;2.67;;;1.80;;
3769;SDS011;1900;48.890;9.190;2022-08-06T07:33:32;3.47;;;2.13;;
3769;SDS011;1900;48.890;9.190;2022-08-06T07:35:59;4.20;;;2.10;;
3769;SDS011;1900;48.890;9.190;2022-08-06T07:38:28;1.97;;;1.70;;
3769;SDS011;1900;48.890;9.190;2022-08-06T07:40:58;3.30;;;1.93;;
3769;SDS011;1900;48.890;9.190;2022-08-06T07:43:27;5.40;;;1.80;;
3769;SDS011;1900;48.890;9.190;2022-08-06T07:45:58;2.33;;;2.07;;
3769;SDS011;1900;48.890;9.190;2022-08-06T07:48:37;4.73;;;2.30;;
3769;SDS011;1900;48.890;9.190;2022-08-06T07:51:06;2.67;;;1.70;;
3769;SDS011;1900;48.890;9.190;2022-08-06T07:53:32;3.70;;;2.00;;
3769;SDS011;1900;48.890;9.190;2022-08-06T07:56:01;2.60;;;1.90;;
3769;SDS011;1900;48.890;9.190;2022-08-06T07:58:31;3.20;;;1.87;;
3769;SDS011;1900;48.890;9.190;2022-08-06T08:00:58;5.10;;;2.10;;
3769;SDS011;1900;48.890;9.190;2022-08-06T08:03:25;4.43;;;1.97;;
3769;SDS011;1900;48.890;9.190;2022-08-06T08:06:10;3.10;;;2.03;;
3769;SDS011;1900;48.890;9.190;2022-08-06T08:08:50;2.50;;;1.80;;
3769;SDS011;1900;48.890;9.190;2022-08-06T08:11:19;5.63;;;1.80;;
3769;SDS011;1900;48.890;9.190;2022-08-06T08:13:46;1.90;;;1.70;;
3769;SDS011;1900;48.890;9.190;2022-08-06T08:16:13;3.20;;;2.00;;
3769;SDS011;1900;48.890;9.190;2022-08-06T08:18:40;2.00;;;1.87;;
3769;SDS011;1900;48.890;9.190;2022-08-06T08:21:07;2.63;;;2.13;;
3769;SDS011;1900;48.890;9.190;2022-08-06T08:23:34;3.67;;;2.30;;
3769;SDS011;1900;48.890;9.190;2022-08-06T08:26:02;9.23;;;2.10;;
3769;SDS011;1900;48.890;9.190;2022-08-06T08:28:28;6.60;;;1.70;;
3769;SDS011;1900;48.890;9.190;2022-08-06T08:30:55;1.73;;;1.63;;
3769;SDS011;1900;48.890;9.190;2022-08-06T08:33:24;4.00;;;1.87;;
3769;SDS011;1900;48.890;9.190;2022-08-06T08:35:51;2.60;;;1.80;;
3769;SDS011;1900;48.890;9.190;2022-08-06T08:38:17;3.77;;;2.23;;
3769;SDS011;1900;48.890;9.190;2022-08-06T08:40:43;2.00;;;1.80;;
3769;SDS011;1900;48.890;9.190;2022-08-06T08:43:11;3.77;;;2.13;;
3769;SDS011;1900;48.890;9.190;2022-08-06T08:45:42;2.50;;;1.73;;
3769;SDS011;1900;48.890;9.190;2022-08-06T08:48:11;4.10;;;1.80;;
3769;SDS011;1900;48.890;9.190;2022-08-06T08:50:40;3.47;;;2.07;;
3769;SDS011;1900;48.890;9.190;2022-08-06T08:53:12;2.43;;;1.60;;
3769;SDS011;1900;48.890;9.190;2022-08-06T08:55:40;4.53;;;1.80;;
3769;SDS011;1900;48.890;9.190;2022-08-06T08:58:06;1.80;;;1.50;;
3769;SDS011;1900;48.890;9.190;2022-08-06T09:00:35;3.73;;;1.50;;
3769;SDS011;1900;48.890;9.190;2022-08-06T09:03:04;2.33;;;1.70;;
3769;SDS011;1900;48.890;9.190;2022-08-06T09:05:31;1.70;;;1.53;;
3769;SDS011;1900;48.890;9.190;2022-08-06T09:07:57;2.83;;;1.40;;
3769;SDS011;1900;48.890;9.190;2022-08-06T09:10:24;3.60;;;1.60;;
3769;SDS011;1900;48.890;9.190;2022-08-06T09:12:51;5.10;;;1.90;;
3769;SDS011;1900;48.890;9.190;2022-08-06T09:15:20;2.53;;;1.70;;
3769;SDS011;1900;48.890;9.190;2022-08-06T09:17:47;8.17;;;1.83;;
3769;SDS011;1900;48.890;9.190;2022-08-06T09:20:13;3.87;;;1.90;;
3769;SDS011;1900;48.890;9.190;2022-08-06T09:22:40;10.87;;;1.90;;
3769;SDS011;1900;48.890;9.190;2022-08-06T09:28:26;1.60;;;1.40;;
3769;SDS011;1900;48.890;9.190;2022-08-06T09:31:08;2.93;;;1.47;;
3769;SDS011;1900;48.890;9.190;2022-08-06T09:33:51;3.30;;;1.50;;
3769;SDS011;1900;48.890;9.190;2022-08-06T09:36:23;2.50;;;1.60;;
3769;SDS011;1900;48.890;9.190;2022-08-06T09:38:56;2.40;;;1.30;;
3769;SDS011;1900;48.890;9.190;2022-08-06T09:41:25;5.30;;;2.00;;
3769;SDS011;1900;48.890;9.190;2022-08-06T09:43:54;3.70;;;1.70;;
3769;SDS011;1900;48.890;9.190;2022-08-06T09:46:37;4.03;;;1.57;;
3769;SDS011;1900;48.890;9.190;2022-08-06T09:49:11;3.17;;;1.83;;
3769;SDS011;1900;48.890;9.190;2022-08-06T09:51:39;3.37;;;1.50;;
3769;SDS011;1900;48.890;9.190;2022-08-06T09:54:08;3.07;;;1.77;;
3769;SDS011;1900;48.890;9.190;2022-08-06T09:56:38;3.93;;;1.90;;
3769;SDS011;1900;48.890;9.190;2022-08-06T09:59:05;3.80;;;1.67;;
3769;SDS011;1900;48.890;9.190;2022-08-06T10:04:23;2.73;;;1.30;;
3769;SDS011;1900;48.890;9.190;2022-08-06T10:06:52;4.80;;;1.87;;
3769;SDS011;1900;48.890;9.190;2022-08-06T10:09:24;2.27;;;1.50;;
3769;SDS011;1900;48.890;9.190;2022-08-06T10:11:50;3.10;;;1.57;;
3769;SDS011;1900;48.890;9.190;2022-08-06T10:14:30;1.77;;;1.40;;
3769;SDS011;1900;48.890;9.190;2022-08-06T10:19:45;2.50;;;1.50;;
3769;SDS011;1900;48.890;9.190;2022-08-06T10:22:36;1.73;;;1.30;;
3769;SDS011;1900;48.890;9.190;2022-08-06T10:25:13;3.27;;;1.67;;
3769;SDS011;1900;48.890;9.190;2022-08-06T10:27:40;1.87;;;1.53;;
3769;SDS011;1900;48.890;9.190;2022-08-06T10:30:08;3.30;;;1.40;;
3769;SDS011;1900;48.890;9.190;2022-08-06T10:32:41;2.67;;;1.33;;
3769;SDS011;1900;48.890;9.190;2022-08-06T10:35:09;7.73;;;1.67;;
3769;SDS011;1900;48.890;9.190;2022-08-06T10:37:37;2.00;;;1.70;;
3769;SDS011;1900;48.890;9.190;2022-08-06T10:40:09;2.33;;;1.50;;
3769;SDS011;1900;48.890;9.190;2022-08-06T10:42:39;2.87;;;1.43;;
3769;SDS011;1900;48.890;9.190;2022-08-06T10:45:05;3.13;;;1.87;;
3769;SDS011;1900;48.890;9.190;2022-08-06T10:47:33;6.53;;;1.67;;
3769;SDS011;1900;48.890;9.190;2022-08-06T10:50:00;1.70;;;1.60;;
3769;SDS011;1900;48.890;9.190;2022-08-06T10:52:26;1.80;;;1.43;;
3769;SDS011;1900;48.890;9.190;2022-08-06T10:54:53;6.23;;;1.80;;
3769;SDS011;1900;48.890;9.190;2022-08-06T10:57:21;2.30;;;1.43;;
3769;SDS011;1900;48.890;9.190;2022-08-06T10:59:47;2.10;;;1.50;;
3769;SDS011;1900;48.890;9.190;2022-08-06T11:05:15;3.10;;;1.73;;
3769;SDS011;1900;48.890;9.190;2022-08-06T11:13:58;4.60;;;1.83;;
3769;SDS011;1900;48.890;9.190;2022-08-06T11:16:31;3.30;;;2.27;;
3769;SDS011;1900;48.890;9.190;2022-08-06T11:19:10;3.53;;;1.40;;
3769;SDS011;1900;48.890;9.190;2022-08-06T11:24:10;3.60;;;1.63;;
3769;SDS011;1900;48.890;9.190;2022-08-06T11:26:39;3.33;;;1.50;;
3769;SDS011;1900;48.890;9.190;2022-08-06T11:56:06;1.83;;;1.37;;
3769;SDS011;1900;48.890;9.190;2022-08-06T11:58:31;1.93;;;1.47;;
3769;SDS011;1900;48.890;9.190;2022-08-06T12:00:58;1.70;;;1.30;;
3769;SDS011;1900;48.890;9.190;2022-08-06T12:03:35;1.93;;;1.70;;
3769;SDS011;1900;48.890;9.190;2022-08-06T12:06:09;2.03;;;1.60;;
3769;SDS011;1900;48.890;9.190;2022-08-06T12:12:17;2.53;;;1.70;;
3769;SDS011;1900;48.890;9.190;2022-08-06T12:14:48;2.00;;;1.40;;
3769;SDS011;1900;48.890;9.190;2022-08-06T12:17:13;4.67;;;1.87;;
3769;SDS011;1900;48.890;9.190;2022-08-06T12:19:47;2.80;;;1.57;;
3769;SDS011;1900;48.890;9.190;2022-08-06T12:22:15;4.23;;;1.50;;
3769;SDS011;1900;48.890;9.190;2022-08-06T12:24:43;2.13;;;1.27;;
3769;SDS011;1900;48.890;9.190;2022-08-06T12:27:13;6.77;;;1.67;;
3769;SDS011;1900;48.890;9.190;2022-08-06T12:29:40;3.17;;;1.60;;
3769;SDS011;1900;48.890;9.190;2022-08-06T12:35:01;1.60;;;1.50;;
3769;SDS011;1900;48.890;9.190;2022-08-06T12:37:40;2.07;;;1.40;;
3769;SDS011;1900;48.890;9.190;2022-08-06T12:40:08;3.20;;;1.53;;
3769;SDS011;1900;48.890;9.190;2022-08-06T12:43:15;5.10;;;1.33;;
3769;SDS011;1900;48.890;9.190;2022-08-06T12:45:40;1.53;;;1.43;;
3769;SDS011;1900;48.890;9.190;2022-08-06T12:48:10;3.40;;;1.73;;
3769;SDS011;1900;48.890;9.190;2022-08-06T12:50:38;3.40;;;1.37;;
3769;SDS011;1900;48.890;9.190;2022-08-06T12:53:07;8.00;;;1.57;;
3769;SDS011;1900;48.890;9.190;2022-08-06T12:55:33;2.77;;;1.37;;
3769;SDS011;1900;48.890;9.190;2022-08-06T12:58:12;3.10;;;1.70;;
3769;SDS011;1900;48.890;9.190;2022-08-06T13:00:40;2.60;;;1.10;;
3769;SDS011;1900;48.890;9.190;2022-08-06T13:03:08;3.90;;;1.73;;
3769;SDS011;1900;48.890;9.190;2022-08-06T13:05:35;3.33;;;1.37;;
3769;SDS011;1900;48.890;9.190;2022-08-06T13:08:02;3.17;;;1.63;;
3769;SDS011;1900;48.890;9.190;2022-08-06T13:10:28;1.43;;;1.23;;
3769;SDS011;1900;48.890;9.190;2022-08-06T13:12:55;2.67;;;1.20;;
3769;SDS011;1900;48.890;9.190;2022-08-06T13:15:24;1.20;;;1.10;;
3769;SDS011;1900;48.890;9.190;2022-08-06T13:20:44;1.30;;;1.20;;
3769;SDS011;1900;48.890;9.190;2022-08-06T13:23:12;2.95;;;1.17;;
3769;SDS011;1900;48.890;9.190;2022-08-06T13:25:43;1.50;;;1.25;;
3769;SDS011;1900;48.890;9.190;2022-08-06T13:28:14;1.23;;;1.13;;
3769;SDS011;1900;48.890;9.190;2022-08-06T13:30:41;1.90;;;1.23;;
3769;SDS011;1900;48.890;9.190;2022-08-06T13:35:38;1.50;;;1.40;;
3769;SDS011;1900;48.890;9.190;2022-08-06T13:38:04;1.83;;;1.52;;
3769;SDS011;1900;48.890;9.190;2022-08-06T13:40:37;1.65;;;1.10;;
3769;SDS011;1900;48.890;9.190;2022-08-06T13:43:13;3.13;;;1.58;;
3769;SDS011;1900;48.890;9.190;2022-08-06T13:45:39;2.50;;;1.30;;
3769;SDS011;1900;48.890;9.190;2022-08-06T13:48:06;1.88;;;1.10;;
3769;SDS011;1900;48.890;9.190;2022-08-06T13:50:36;5.03;;;1.30;;
3769;SDS011;1900;48.890;9.190;2022-08-06T13:53:07;4.63;;;1.75;;
3769;SDS011;1900;48.890;9.190;2022-08-06T13:55:34;1.52;;;1.42;;
3769;SDS011;1900;48.890;9.190;2022-08-06T13:58:00;1.65;;;1.20;;
3769;SDS011;1900;48.890;9.190;2022-08-06T14:00:26;1.35;;;1.02;;
3769;SDS011;1900;48.890;9.190;2022-08-06T14:02:52;2.65;;;1.38;;
3769;SDS011;1900;48.890;9.190;2022-08-06T14:05:19;3.65;;;1.40;;
3769;SDS011;1900;48.890;9.190;2022-08-06T14:07:46;1.45;;;1.10;;
3769;SDS011;1900;48.890;9.190;2022-08-06T14:10:12;3.72;;;1.60;;
3769;SDS011;1900;48.890;9.190;2022-08-06T14:12:38;2.30;;;1.33;;
3769;SDS011;1900;48.890;9.190;2022-08-06T14:15:05;2.65;;;1.38;;
3769;SDS011;1900;48.890;9.190;2022-08-06T14:17:31;2.55;;;1.10;;
3769;SDS011;1900;48.890;9.190;2022-08-06T14:19:57;7.45;;;1.58;;
3769;SDS011;1900;48.890;9.190;2022-08-06T14:22:23;3.22;;;1.23;;
3769;SDS011;1900;48.890;9.190;2022-08-06T14:24:48;1.27;;;1.00;;
3769;SDS011;1900;48.890;9.190;2022-08-06T14:27:14;1.38;;;1.27;;
3769;SDS011;1900;48.890;9.190;2022-08-06T14:29:40;1.45;;;1.10;;
3769;SDS011;1900;48.890;9.190;2022-08-06T14:32:06;1.40;;;1.30;;
3769;SDS011;1900;48.890;9.190;2022-08-06T14:34:32;1.58;;;1.30;;
3769;SDS011;1900;48.890;9.190;2022-08-06T14:37:00;1.98;;;1.20;;
3769;SDS011;1900;48.890;9.190;2022-08-06T14:39:26;5.07;;;1.30;;
3769;SDS011;1900;48.890;9.190;2022-08-06T14:41:52;1.20;;;1.10;;
3769;SDS011;1900;48.890;9.190;2022-08-06T14:44:36;7.85;;;1.10;;
3769;SDS011;1900;48.890;9.190;2022-08-06T14:47:20;1.40;;;1.05;;
3769;SDS011;1900;48.890;9.190;2022-08-06T14:49:47;1.70;;;1.35;;
3769;SDS011;1900;48.890;9.190;2022-08-06T14:52:13;3.50;;;1.00;;
3769;SDS011;1900;48.890;9.190;2022-08-06T14:54:39;3.00;;;1.25;;
3769;SDS011;1900;48.890;9.190;2022-08-06T14:57:08;1.98;;;1.10;;
3769;SDS011;1900;48.890;9.190;2022-08-06T14:59:35;5.60;;;0.93;;
3769;SDS011;1900;48.890;9.190;2022-08-06T15:02:01;1.63;;;1.45;;
3769;SDS011;1900;48.890;9.190;2022-08-06T15:04:28;2.08;;;1.17;;
3769;SDS011;1900;48.890;9.190;2022-08-06T15:06:55;2.08;;;1.10;;
3769;SDS011;1900;48.890;9.190;2022-08-06T15:09:21;2.33;;;1.17;;
3769;SDS011;1900;48.890;9.190;2022-08-06T15:11:47;2.47;;;1.42;;
3769;SDS011;1900;48.890;9.190;2022-08-06T15:14:13;1.13;;;1.02;;
3769;SDS011;1900;48.890;9.190;2022-08-06T15:16:39;3.30;;;1.00;;
3769;SDS011;1900;48.890;9.190;2022-08-06T15:19:05;1.40;;;0.82;;
3769;SDS011;1900;48.890;9.190;2022-08-06T15:21:30;1.35;;;0.90;;
3769;SDS011;1900;48.890;9.190;2022-08-06T15:23:56;3.53;;;1.50;;
3769;SDS011;1900;48.890;9.190;2022-08-06T15:26:23;2.33;;;1.20;;
3769;SDS011;1900;48.890;9.190;2022-08-06T15:28:50;2.50;;;1.13;;
3769;SDS011;1900;48.890;9.190;2022-08-06T15:31:16;3.88;;;1.50;;
3769;SDS011;1900;48.890;9.190;2022-08-06T15:33:43;1.70;;;0.98;;
3769;SDS011;1900;48.890;9.190;2022-08-06T15:36:09;1.20;;;1.10;;
3769;SDS011;1900;48.890;9.190;2022-08-06T15:38:35;2.80;;;1.48;;
3769;SDS011;1900;48.890;9.190;2022-08-06T15:41:03;5.68;;;1.20;;
3769;SDS011;1900;48.890;9.190;2022-08-06T15:43:29;1.20;;;1.10;;
3769;SDS011;1900;48.890;9.190;2022-08-06T15:45:55;1.48;;;1.00;;
3769;SDS011;1900;48.890;9.190;2022-08-06T15:48:24;8.63;;;1.45;;
3769;SDS011;1900;48.890;9.190;2022-08-06T15:50:51;2.65;;;1.05;;
3769;SDS011;1900;48.890;9.190;2022-08-06T15:53:17;2.05;;;1.50;;
3769;SDS011;1900;48.890;9.190;2022-08-06T15:55:44;2.15;;;1.33;;
3769;SDS011;1900;48.890;9.190;2022-08-06T15:58:11;3.00;;;1.30;;
3769;SDS011;1900;48.890;9.190;2022-08-06T16:00:37;2.50;;;1.35;;
3769;SDS011;1900;48.890;9.190;2022-08-06T16:03:05;2.25;;;1.10;;
3769;SDS011;1900;48.890;9.190;2022-08-06T16:05:32;1.58;;;1.13;;
3769;SDS011;1900;48.890;9.190;2022-08-06T16:07:58;3.33;;;1.58;;
3769;SDS011;1900;48.890;9.190;2022-08-06T16:10:24;2.28;;;0.93;;
3769;SDS011;1900;48.890;9.190;2022-08-06T16:12:50;1.90;;;1.20;;
3769;SDS011;1900;48.890;9.190;2022-08-06T16:15:17;4.13;;;1.30;;
3769;SDS011;1900;48.890;9.190;2022-08-06T16:17:44;1.60;;;1.20;;
3769;SDS011;1900;48.890;9.190;2022-08-06T16:20:10;1.20;;;1.10;;
3769;SDS011;1900;48.890;9.190;2022-08-06T16:22:37;2.63;;;1.60;;
3769;SDS011;1900;48.890;9.190;2022-08-06T16:25:03;7.37;;;1.63;;
3769;SDS011;1900;48.890;9.190;2022-08-06T16:27:29;1.90;;;1.60;;
3769;SDS011;1900;48.890;9.190;2022-08-06T16:29:56;4.33;;;1.93;;
3769;SDS011;1900;48.890;9.190;2022-08-06T16:32:22;1.70;;;1.60;;
3769;SDS011;1900;48.890;9.190;2022-08-06T16:34:47;1.77;;;1.50;;
3769;SDS011;1900;48.890;9.190;2022-08-06T16:37:13;2.50;;;1.60;;
3769;SDS011;1900;48.890;9.190;2022-08-06T16:39:39;5.43;;;1.50;;
3769;SDS011;1900;48.890;9.190;2022-08-06T16:42:06;3.77;;;1.40;;
3769;SDS011;1900;48.890;9.190;2022-08-06T16:44:33;5.23;;;1.60;;
3769;SDS011;1900;48.890;9.190;2022-08-06T16:47:00;3.17;;;1.40;;
3769;SDS011;1900;48.890;9.190;2022-08-06T16:49:27;2.83;;;1.50;;
3769;SDS011;1900;48.890;9.190;2022-08-06T16:51:53;3.57;;;1.40;;
3769;SDS011;1900;48.890;9.190;2022-08-06T16:54:18;2.27;;;1.40;;